Raven, Kentucky
Current Conditions -  °F | °C
As of 4:55 AM on Friday 24 Oct 2014 (Local Time) from KPBX Reporting Station
Haze Haze  
Wind Chill: 41°   Ceiling: Unl
Heat Index: 41°   Visibility: 3mi
Dew Point: 40°   Wind: 3mph
Humidity: 97%   Direction: 190°S
Pressure: 30.12"   Gusts: NA
Location:  37.41°N, 82.8°W
Report Text: KPBX 240855Z AUTO 19003KT 3SM BR CLR 05/04 A3012 RMK AO2 T00480043
Loading
Personal Weather Stations






























Interactive Weather Map
Tropical Storm Tracking
New forecast layout! Learn more

10-Day Weather Forecast

Advertisements
Track Severe Weather on mobile